createdAt,value
2022-09-28T00:02:01.091Z,1.50
2022-09-28T00:04:32.018Z,1.35
2022-09-28T00:07:02.133Z,1.25
2022-09-28T00:09:37.371Z,1.23
2022-09-28T00:12:12.357Z,1.40
2022-09-28T00:14:48.202Z,1.27
2022-09-28T00:17:33.567Z,1.20
2022-09-28T00:20:01.150Z,1.15
2022-09-28T00:22:29.519Z,1.35
2022-09-28T00:24:56.394Z,1.27
2022-09-28T00:27:36.617Z,1.25
2022-09-28T00:30:04.495Z,1.27
2022-09-28T00:32:31.314Z,1.40
2022-09-28T00:35:10.785Z,1.75
2022-09-28T00:37:45.259Z,1.40
2022-09-28T00:40:19.814Z,1.33
2022-09-28T00:42:56.477Z,1.38
2022-09-28T00:45:36.452Z,1.00
2022-09-28T00:50:50.129Z,1.20
2022-09-28T00:53:23.804Z,1.13
2022-09-28T00:56:00.019Z,1.20
2022-09-28T00:58:31.942Z,1.42
2022-09-28T01:01:02.859Z,1.40
2022-09-28T01:03:39.964Z,1.40
2022-09-28T01:06:07.726Z,1.13
2022-09-28T01:08:39.357Z,1.58
2022-09-28T01:11:06.162Z,1.42
2022-09-28T01:13:45.440Z,1.10
2022-09-28T01:16:38.441Z,1.05
2022-09-28T01:19:09.637Z,1.30
2022-09-28T01:21:59.344Z,1.77
2022-09-28T01:24:26.168Z,1.30
2022-09-28T01:27:16.457Z,1.38
2022-09-28T01:32:19.842Z,1.10
2022-09-28T01:35:09.896Z,1.35
2022-09-28T01:37:43.988Z,1.23
2022-09-28T01:40:16.659Z,1.35
2022-09-28T01:42:51.501Z,1.30
2022-09-28T01:45:24.376Z,1.65
2022-09-28T01:47:51.489Z,2.25
2022-09-28T01:50:25.970Z,1.55
2022-09-28T01:53:02.260Z,1.42
2022-09-28T01:55:50.684Z,1.20
2022-09-28T01:58:37.607Z,1.88
2022-09-28T02:01:29.582Z,1.20
2022-09-28T02:04:08.874Z,1.60
2022-09-28T02:06:47.170Z,1.27
2022-09-28T02:12:06.444Z,1.58
2022-09-28T02:14:44.729Z,1.75
2022-09-28T02:17:23.908Z,1.80
2022-09-28T02:19:56.945Z,1.30
2022-09-28T02:22:49.982Z,1.42
2022-09-28T02:25:19.821Z,1.45
2022-09-28T02:28:04.435Z,1.40
2022-09-28T02:33:41.547Z,1.38
2022-09-28T02:36:09.188Z,1.80
2022-09-28T02:38:36.742Z,1.55
2022-09-28T02:41:10.504Z,1.33
2022-09-28T02:43:56.311Z,1.42
2022-09-28T02:46:35.129Z,1.27
2022-09-28T02:49:24.960Z,1.55
2022-09-28T02:52:06.724Z,1.75
2022-09-28T02:54:45.561Z,1.52
2022-09-28T02:57:35.753Z,1.50
2022-09-28T03:00:05.319Z,1.30
2022-09-28T03:02:43.472Z,1.35
2022-09-28T03:05:16.087Z,1.33
2022-09-28T03:08:05.224Z,1.40
2022-09-28T03:10:54.043Z,1.48
2022-09-28T03:13:30.661Z,1.45
2022-09-28T03:16:30.717Z,1.50
2022-09-28T03:19:02.984Z,1.30
2022-09-28T03:24:16.651Z,1.27
2022-09-28T03:26:46.074Z,1.23
2022-09-28T03:29:15.931Z,1.48
2022-09-28T03:31:44.040Z,1.60
2022-09-28T03:34:19.895Z,1.35
2022-09-28T03:37:03.339Z,1.45
2022-09-28T03:39:37.734Z,1.30
2022-09-28T03:42:09.099Z,1.48
2022-09-28T03:44:42.931Z,1.65
2022-09-28T03:50:02.929Z,1.25
2022-09-28T03:52:34.665Z,1.30
2022-09-28T03:55:07.090Z,1.50
2022-09-28T03:57:43.569Z,1.33
2022-09-28T04:00:11.262Z,1.67
2022-09-28T04:02:38.158Z,1.83
2022-09-28T04:05:05.587Z,1.15
2022-09-28T04:07:35.667Z,1.25
2022-09-28T04:10:09.093Z,1.20
2022-09-28T04:12:45.811Z,1.48
2022-09-28T04:15:20.250Z,1.40
2022-09-28T04:17:49.634Z,1.45
2022-09-28T04:20:21.208Z,1.58
2022-09-28T04:22:53.375Z,1.50
2022-09-28T04:25:23.193Z,1.40
2022-09-28T04:31:03.074Z,1.05
2022-09-28T04:33:33.388Z,1.38
2022-09-28T04:36:00.768Z,1.20
2022-09-28T04:38:52.347Z,1.10
2022-09-28T04:41:24.380Z,1.38
2022-09-28T04:43:51.315Z,1.40
2022-09-28T04:46:28.668Z,1.50
2022-09-28T04:49:02.074Z,1.67
2022-09-28T04:51:43.798Z,1.40
2022-09-28T04:54:17.829Z,2.30
2022-09-28T04:56:49.736Z,1.23
2022-09-28T04:59:32.347Z,1.30
2022-09-28T05:02:03.505Z,1.02
2022-09-28T05:04:33.293Z,1.10
2022-09-28T05:07:00.086Z,1.08
2022-09-28T05:09:30.046Z,1.20
2022-09-28T05:12:11.315Z,1.30
2022-09-28T05:14:44.442Z,1.40
2022-09-28T05:17:15.537Z,1.10
2022-09-28T05:22:30.598Z,1.58
2022-09-28T05:24:58.948Z,1.70
2022-09-28T05:27:35.091Z,1.40
2022-09-28T05:30:01.978Z,1.60
2022-09-28T05:32:28.936Z,1.38
2022-09-28T05:35:12.056Z,1.38
2022-09-28T05:37:39.412Z,1.42
2022-09-28T05:40:16.063Z,1.50
2022-09-28T05:42:46.853Z,1.45
2022-09-28T05:47:59.372Z,1.58
2022-09-28T05:50:26.176Z,1.50
2022-09-28T05:53:02.593Z,1.40
2022-09-28T05:55:36.524Z,1.33
2022-09-28T05:58:06.305Z,1.40
2022-09-28T06:00:40.946Z,1.98
2022-09-28T06:03:09.626Z,1.00
2022-09-28T06:08:21.248Z,1.50
2022-09-28T06:10:48.202Z,1.95
2022-09-28T06:13:18.517Z,1.60
2022-09-28T06:15:49.860Z,1.60
2022-09-28T06:18:16.816Z,1.45
2022-09-28T06:20:43.728Z,1.55
2022-09-28T06:23:11.298Z,1.88
2022-09-28T06:25:38.478Z,1.50
2022-09-28T06:30:55.223Z,1.40
2022-09-28T06:33:29.569Z,1.50
2022-09-28T06:36:03.736Z,1.70
2022-09-28T06:38:34.014Z,1.42
2022-09-28T06:41:04.022Z,1.38
2022-09-28T06:43:41.544Z,1.40
2022-09-28T06:46:17.268Z,1.63
2022-09-28T06:48:45.121Z,1.83
2022-09-28T06:51:11.941Z,1.70
2022-09-28T06:53:39.811Z,1.80
2022-09-28T06:56:16.937Z,2.00
2022-09-28T06:58:43.958Z,1.73
2022-09-28T07:01:13.757Z,1.80
2022-09-28T07:03:43.029Z,1.77
2022-09-28T07:06:11.422Z,1.83
2022-09-28T07:08:38.601Z,1.90
2022-09-28T07:11:07.737Z,1.92
2022-09-28T07:13:51.919Z,2.03
2022-09-28T07:16:26.832Z,2.17
2022-09-28T07:19:00.233Z,1.80
2022-09-28T07:21:30.095Z,1.95
2022-09-28T07:23:57.949Z,1.75
2022-09-28T07:26:31.472Z,2.10
2022-09-28T07:28:58.243Z,1.90
2022-09-28T07:31:31.227Z,1.88
2022-09-28T07:34:06.269Z,1.75
2022-09-28T07:36:36.612Z,1.80
2022-09-28T07:39:10.902Z,1.90
2022-09-28T07:41:40.751Z,2.05
2022-09-28T07:44:13.811Z,1.98
2022-09-28T07:46:41.143Z,2.15
2022-09-28T07:51:50.305Z,1.60
2022-09-28T07:54:19.856Z,1.67
2022-09-28T07:56:47.249Z,1.67
2022-09-28T07:59:18.731Z,1.70
2022-09-28T08:01:51.606Z,1.88
2022-09-28T08:04:21.645Z,1.40
2022-09-28T08:06:57.700Z,1.92
2022-09-28T08:12:09.758Z,1.88
2022-09-28T08:14:42.699Z,1.33
2022-09-28T08:17:13.612Z,1.30
2022-09-28T08:20:12.147Z,1.65
2022-09-28T08:22:42.036Z,1.40
2022-09-28T08:25:08.967Z,1.60
2022-09-28T08:27:41.431Z,1.55
2022-09-28T08:30:10.183Z,1.10
2022-09-28T08:38:20.879Z,1.23
2022-09-28T08:40:57.909Z,1.13
2022-09-28T08:43:53.141Z,1.30
2022-09-28T08:46:25.029Z,1.40
2022-09-28T08:49:25.260Z,1.40
2022-09-28T08:52:11.248Z,1.30
2022-09-28T08:55:01.558Z,1.40
2022-09-28T09:00:11.063Z,1.23
2022-09-28T09:02:47.091Z,1.38
2022-09-28T09:05:16.182Z,1.13
2022-09-28T09:08:01.559Z,1.45
2022-09-28T09:10:38.240Z,1.50
2022-09-28T09:13:05.131Z,1.45
2022-09-28T09:15:54.558Z,1.92
2022-09-28T09:18:28.865Z,1.52
2022-09-28T09:20:59.676Z,1.77
2022-09-28T09:23:44.313Z,1.60
2022-09-28T09:26:29.971Z,1.92
2022-09-28T09:29:05.791Z,2.17
2022-09-28T09:31:41.353Z,1.80
2022-09-28T09:34:27.101Z,2.17
2022-09-28T09:37:14.204Z,2.00
2022-09-28T09:39:41.347Z,2.00
2022-09-28T09:42:20.147Z,2.00
2022-09-28T09:44:48.096Z,1.92
2022-09-28T09:47:29.402Z,1.85
2022-09-28T09:50:06.794Z,1.80
2022-09-28T09:52:57.401Z,1.70
2022-09-28T09:55:45.625Z,1.90
2022-09-28T09:58:18.249Z,2.45
2022-09-28T10:00:46.041Z,1.70
2022-09-28T10:03:21.793Z,1.55
2022-09-28T10:05:51.623Z,1.40
2022-09-28T10:08:20.342Z,1.20
2022-09-28T10:10:55.397Z,1.23
2022-09-28T10:13:23.320Z,1.65
2022-09-28T10:15:54.666Z,1.05
2022-09-28T10:18:21.666Z,1.50
2022-09-28T10:20:49.137Z,1.27
2022-09-28T10:23:20.409Z,1.38
2022-09-28T10:25:48.492Z,1.40
2022-09-28T10:28:17.907Z,1.38
2022-09-28T10:30:45.039Z,1.58
2022-09-28T10:33:31.782Z,1.20
2022-09-28T10:36:02.134Z,1.30
2022-09-28T10:38:29.857Z,1.23
2022-09-28T10:41:00.885Z,1.35
2022-09-28T10:43:30.192Z,1.30
2022-09-28T10:46:02.041Z,0.88
2022-09-28T10:48:31.296Z,1.20
2022-09-28T10:51:00.274Z,1.00
2022-09-28T10:53:27.209Z,0.82
2022-09-28T10:55:59.278Z,0.93
2022-09-28T10:58:28.097Z,0.70
2022-09-28T11:01:00.115Z,0.80
2022-09-28T11:03:28.100Z,0.70
2022-09-28T11:05:55.015Z,0.88
2022-09-28T11:08:25.189Z,0.90
2022-09-28T11:11:02.047Z,0.90
2022-09-28T11:13:29.172Z,0.80
2022-09-28T11:15:57.022Z,0.60
2022-09-28T11:18:31.463Z,0.88
2022-09-28T11:21:14.260Z,0.70
2022-09-28T11:23:42.789Z,0.70
2022-09-28T11:26:17.670Z,1.60
2022-09-28T11:28:50.316Z,0.70
2022-09-28T11:31:23.887Z,0.77
2022-09-28T11:33:53.368Z,0.70
2022-09-28T11:36:26.092Z,0.90
2022-09-28T11:39:15.293Z,0.80
2022-09-28T11:41:45.132Z,0.70
2022-09-28T11:44:32.697Z,0.57
2022-09-28T11:47:03.095Z,0.60
2022-09-28T11:49:40.198Z,0.70
2022-09-28T11:52:12.646Z,0.80
2022-09-28T11:54:52.235Z,0.85
2022-09-28T11:57:22.233Z,0.95
2022-09-28T11:59:49.068Z,0.70
2022-09-28T12:02:20.210Z,0.80
2022-09-28T12:04:52.308Z,0.65
2022-09-28T12:07:35.058Z,0.70
2022-09-28T12:10:11.735Z,0.70
2022-09-28T12:12:45.708Z,0.70
2022-09-28T12:15:18.351Z,0.60
2022-09-28T12:18:02.908Z,0.60
2022-09-28T12:20:32.586Z,0.80
2022-09-28T12:22:59.382Z,0.70
2022-09-28T12:25:28.120Z,0.52
2022-09-28T12:27:58.169Z,0.90
2022-09-28T12:30:25.998Z,0.70
2022-09-28T12:32:55.865Z,0.68
2022-09-28T12:35:22.723Z,0.77
2022-09-28T12:38:28.289Z,0.80
2022-09-28T12:40:55.727Z,0.80
2022-09-28T12:43:37.774Z,0.68
2022-09-28T12:46:11.941Z,0.70
2022-09-28T12:49:04.132Z,0.60
2022-09-28T12:51:43.773Z,0.60
2022-09-28T12:54:10.762Z,0.73
2022-09-28T12:56:37.697Z,0.82
2022-09-28T12:59:04.653Z,0.35
2022-09-28T13:01:50.411Z,0.50
2022-09-28T13:04:36.215Z,0.60
2022-09-28T13:07:13.197Z,0.60
2022-09-28T13:09:58.548Z,0.80
2022-09-28T13:12:47.376Z,0.50
2022-09-28T13:15:14.513Z,0.57
2022-09-28T13:17:56.568Z,0.75
2022-09-28T13:20:32.358Z,0.70
2022-09-28T13:23:05.229Z,0.50
2022-09-28T13:25:34.262Z,0.90
2022-09-28T13:28:02.923Z,0.65
2022-09-28T13:30:30.458Z,0.60
2022-09-28T13:33:01.105Z,0.50
2022-09-28T13:35:28.599Z,0.80
2022-09-28T13:38:14.508Z,0.60
2022-09-28T13:41:00.049Z,0.60
2022-09-28T13:43:31.551Z,0.70
2022-09-28T13:46:03.296Z,0.47
2022-09-28T13:48:42.591Z,0.60
2022-09-28T13:51:15.556Z,0.80
2022-09-28T13:53:57.497Z,1.10
2022-09-28T13:56:30.274Z,0.60
2022-09-28T13:59:03.297Z,0.70
2022-09-28T14:01:32.874Z,0.70
2022-09-28T14:04:12.074Z,0.60
2022-09-28T14:06:44.498Z,0.70
2022-09-28T14:09:33.854Z,0.50
2022-09-28T14:12:01.485Z,0.70
2022-09-28T14:14:29.875Z,0.60
2022-09-28T14:17:15.555Z,0.60
2022-09-28T14:19:42.528Z,0.77
2022-09-28T14:22:21.397Z,0.70
2022-09-28T14:24:54.811Z,0.60
2022-09-28T14:27:37.333Z,0.60
2022-09-28T14:30:13.468Z,1.00
2022-09-28T14:32:42.935Z,0.55
2022-09-28T14:35:19.923Z,0.80
2022-09-28T14:38:07.899Z,0.80
2022-09-28T14:41:12.696Z,0.75
2022-09-28T14:43:45.516Z,0.95
2022-09-28T14:46:13.199Z,0.80
2022-09-28T14:48:50.969Z,0.80
2022-09-28T14:51:27.228Z,0.98
2022-09-28T14:53:54.945Z,0.98
2022-09-28T14:56:21.864Z,0.50
2022-09-28T14:58:53.694Z,0.70
2022-09-28T15:01:22.413Z,0.80
2022-09-28T15:03:51.684Z,0.90
2022-09-28T15:06:19.830Z,0.95
2022-09-28T15:08:48.799Z,0.70
2022-09-28T15:11:17.176Z,1.10
2022-09-28T15:13:44.134Z,1.00
2022-09-28T15:16:12.730Z,0.70
2022-09-28T15:18:45.468Z,0.90
2022-09-28T15:21:12.932Z,2.20
2022-09-28T15:23:41.169Z,1.73
2022-09-28T15:26:20.055Z,2.67
2022-09-28T15:28:46.842Z,6.75
2022-09-28T15:31:18.426Z,7.35
2022-09-28T15:34:04.209Z,3.70
2022-09-28T15:36:32.625Z,10.18
2022-09-28T15:39:10.539Z,5.05
2022-09-28T15:41:37.487Z,2.17
2022-09-28T15:44:14.910Z,3.97
2022-09-28T15:46:43.081Z,3.42
2022-09-28T15:49:22.724Z,2.50
2022-09-28T15:51:52.280Z,1.85
2022-09-28T15:54:25.021Z,1.20
2022-09-28T15:56:52.492Z,1.30
2022-09-28T15:59:25.350Z,1.20
2022-09-28T16:02:04.102Z,0.82
2022-09-28T16:04:34.440Z,0.90
2022-09-28T16:07:24.593Z,0.90
2022-09-28T16:09:55.731Z,0.73
2022-09-28T16:12:23.666Z,0.95
2022-09-28T16:14:53.938Z,0.82
2022-09-28T16:17:41.840Z,1.10
2022-09-28T16:20:20.922Z,0.80
2022-09-28T16:22:48.454Z,0.80
2022-09-28T16:25:19.769Z,1.00
2022-09-28T16:27:46.722Z,0.80
2022-09-28T16:30:21.882Z,1.10
2022-09-28T16:32:53.272Z,2.92
2022-09-28T16:35:30.770Z,2.30
2022-09-28T16:40:27.070Z,1.30
2022-09-28T16:42:55.031Z,1.10
2022-09-28T16:45:23.311Z,1.20
2022-09-28T16:47:56.017Z,1.00
2022-09-28T16:50:23.341Z,1.02
2022-09-28T16:53:15.231Z,0.88
2022-09-28T16:55:42.073Z,1.00
2022-09-28T16:58:09.076Z,1.10
2022-09-28T17:00:36.277Z,1.10
2022-09-28T17:03:11.360Z,0.80
2022-09-28T17:05:40.223Z,1.30
2022-09-28T17:08:07.187Z,1.20
2022-09-28T17:11:02.108Z,1.08
2022-09-28T17:13:36.184Z,1.00
2022-09-28T17:16:06.297Z,0.88
2022-09-28T17:18:33.339Z,0.95
2022-09-28T17:21:06.314Z,0.98
2022-09-28T17:23:33.415Z,1.10
2022-09-28T17:26:01.641Z,1.00
2022-09-28T17:28:31.409Z,1.10
2022-09-28T17:30:58.315Z,0.88
2022-09-28T17:33:25.218Z,1.10
2022-09-28T17:35:53.519Z,1.20
2022-09-28T17:38:20.742Z,1.25
2022-09-28T17:40:48.317Z,1.27
2022-09-28T17:43:15.255Z,1.10
2022-09-28T17:45:44.931Z,1.17
2022-09-28T17:48:15.942Z,0.98
2022-09-28T17:50:46.448Z,1.23
2022-09-28T17:53:14.272Z,0.88
2022-09-28T17:55:43.065Z,1.15
2022-09-28T17:58:21.067Z,1.45
2022-09-28T18:00:49.134Z,1.27
2022-09-28T18:03:22.789Z,1.20
2022-09-28T18:05:53.686Z,1.20
2022-09-28T18:08:21.434Z,1.20
2022-09-28T18:10:49.682Z,1.30
2022-09-28T18:13:16.526Z,1.40
2022-09-28T18:15:43.455Z,1.75
2022-09-28T18:18:10.559Z,1.42
2022-09-28T18:20:37.643Z,1.50
2022-09-28T18:23:04.745Z,1.50
2022-09-28T18:25:31.667Z,1.73
2022-09-28T18:28:00.150Z,1.60
2022-09-28T18:30:27.700Z,1.88
2022-09-28T18:32:54.721Z,1.90
2022-09-28T18:35:23.116Z,2.08
2022-09-28T18:37:50.413Z,1.83
2022-09-28T18:40:17.894Z,2.40
2022-09-28T18:42:44.767Z,2.30
2022-09-28T18:45:11.694Z,2.05
2022-09-28T18:47:39.253Z,2.47
2022-09-28T18:50:06.662Z,2.53
2022-09-28T18:52:36.397Z,2.50
2022-09-28T18:55:03.561Z,2.65
2022-09-28T18:57:33.206Z,2.47
2022-09-28T19:00:00.594Z,3.08
2022-09-28T19:02:27.820Z,2.97
2022-09-28T19:04:54.729Z,2.70
2022-09-28T19:07:21.561Z,3.63
2022-09-28T19:09:48.424Z,3.42
2022-09-28T19:12:15.174Z,3.63
2022-09-28T19:14:42.005Z,3.78
2022-09-28T19:17:08.939Z,4.40
2022-09-28T19:19:35.912Z,4.63
2022-09-28T19:22:02.732Z,4.53
2022-09-28T19:24:29.635Z,6.25
2022-09-28T19:26:56.742Z,5.82
2022-09-28T19:29:23.681Z,5.32
2022-09-28T19:31:51.827Z,5.30
2022-09-28T19:34:18.747Z,5.53
2022-09-28T19:36:45.590Z,5.32
2022-09-28T19:39:15.637Z,4.95
2022-09-28T19:41:44.814Z,4.70
2022-09-28T19:44:30.267Z,5.05
2022-09-28T19:47:04.823Z,4.20
2022-09-28T19:49:36.802Z,4.00
2022-09-28T19:52:13.994Z,4.00
2022-09-28T19:54:43.945Z,4.22
2022-09-28T19:57:11.614Z,3.80
2022-09-28T19:59:38.647Z,3.58
2022-09-28T20:02:06.704Z,4.50
2022-09-28T20:04:36.408Z,3.78
2022-09-28T20:07:04.508Z,4.00
2022-09-28T20:09:31.841Z,5.18
2022-09-28T20:11:58.624Z,4.35
2022-09-28T20:14:27.561Z,4.43
2022-09-28T20:16:58.766Z,4.38
2022-09-28T20:19:28.589Z,5.60
2022-09-28T20:21:58.614Z,4.90
2022-09-28T20:24:25.554Z,5.05
2022-09-28T20:26:52.400Z,4.65
2022-09-28T20:29:19.444Z,4.47
2022-09-28T20:31:46.415Z,4.68
2022-09-28T20:34:13.375Z,3.90
2022-09-28T20:36:42.488Z,4.55
2022-09-28T20:39:09.999Z,4.28
2022-09-28T20:41:36.960Z,4.72
2022-09-28T20:44:06.019Z,4.70
2022-09-28T20:46:36.840Z,4.43
2022-09-28T20:49:04.573Z,4.78
2022-09-28T20:51:31.640Z,5.00
2022-09-28T20:53:59.340Z,4.13
2022-09-28T20:56:27.391Z,5.25
2022-09-28T20:58:54.841Z,5.20
2022-09-28T21:01:22.831Z,5.18
2022-09-28T21:03:50.938Z,5.05
2022-09-28T21:06:18.735Z,5.60
2022-09-28T21:08:46.083Z,4.97
2022-09-28T21:11:14.003Z,5.45
2022-09-28T21:13:42.950Z,4.85
2022-09-28T21:16:10.933Z,5.03
2022-09-28T21:18:38.270Z,5.32
2022-09-28T21:21:06.226Z,4.82
2022-09-28T21:23:33.695Z,5.20
2022-09-28T21:26:01.554Z,5.20
2022-09-28T21:28:31.731Z,5.70
2022-09-28T21:30:59.043Z,5.80
2022-09-28T21:33:26.222Z,5.70
2022-09-28T21:35:53.193Z,5.90
2022-09-28T21:38:24.033Z,5.30
2022-09-28T21:40:54.768Z,6.18
2022-09-28T21:43:21.619Z,6.30
2022-09-28T21:45:52.204Z,6.38
2022-09-28T21:48:19.446Z,7.68
2022-09-28T21:51:02.402Z,7.32
2022-09-28T21:53:30.635Z,6.40
2022-09-28T21:55:57.783Z,7.38
2022-09-28T21:58:33.675Z,6.93
2022-09-28T22:01:05.221Z,7.72
2022-09-28T22:06:10.431Z,7.32
2022-09-28T22:08:37.327Z,8.20
2022-09-28T22:11:08.543Z,6.97
2022-09-28T22:13:47.695Z,6.72
2022-09-28T22:16:25.766Z,8.05
2022-09-28T22:18:52.684Z,7.65
2022-09-28T22:21:26.428Z,7.68
2022-09-28T22:23:58.372Z,7.20
2022-09-28T22:26:30.240Z,7.45
2022-09-28T22:29:05.128Z,7.25
2022-09-28T22:31:36.143Z,7.10
2022-09-28T22:34:07.015Z,8.13
2022-09-28T22:36:33.869Z,6.90
2022-09-28T22:39:00.991Z,7.05
2022-09-28T22:41:28.431Z,6.05
2022-09-28T22:44:02.213Z,6.45
2022-09-28T22:46:31.944Z,6.28
2022-09-28T22:48:59.484Z,6.65
2022-09-28T22:51:27.081Z,6.65
2022-09-28T22:53:57.515Z,6.80
2022-09-28T22:56:35.983Z,7.07
2022-09-28T22:59:02.984Z,6.13
2022-09-28T23:01:30.199Z,7.35
2022-09-28T23:03:57.713Z,7.47
2022-09-28T23:06:37.760Z,7.15
2022-09-28T23:09:05.682Z,6.30
2022-09-28T23:11:32.837Z,7.18
2022-09-28T23:14:04.386Z,7.32
2022-09-28T23:16:31.240Z,6.75
2022-09-28T23:18:58.071Z,7.43
2022-09-28T23:21:30.724Z,6.97
2022-09-28T23:24:03.618Z,6.78
2022-09-28T23:26:31.286Z,6.32
2022-09-28T23:29:09.663Z,6.70
2022-09-28T23:31:36.852Z,7.10
2022-09-28T23:34:05.135Z,5.90
2022-09-28T23:36:37.829Z,5.57
2022-09-28T23:39:09.533Z,5.90
2022-09-28T23:41:36.359Z,6.32
2022-09-28T23:44:03.373Z,6.00
2022-09-28T23:46:30.342Z,5.90
2022-09-28T23:48:57.523Z,6.00
2022-09-28T23:51:24.361Z,5.93
2022-09-28T23:53:54.859Z,6.15
2022-09-28T23:56:25.222Z,6.10
2022-09-28T23:58:54.695Z,5.57
